This is the latest recevied weather packets stored in our database for station/object KF4ZNO-13. If no packets are shown the sender has not sent any weather packets the latest 10 day(s).
| Time | Temp. | Humidity | Pressure | Rain* | Wind** | Luminosity | Snow |
|---|---|---|---|---|---|---|---|
| 1777927820 | 26.67° C | 37% | 1016.4 hPa | 0 mm | - | - | - |
| 1777926620 | 27.22° C | 35% | 1016.6 hPa | 0 mm | - | - | - |
| 1777921820 | 26.67° C | 34% | 1017.6 hPa | 0 mm | - | - | - |
| 1777916440 | 25.56° C | 37% | 1018.8 hPa | 0 mm | - | - | - |
| 1777914619 | 25.56° C | 35% | 1019.1 hPa | 0 mm | - | - | - |
| 1777913420 | 25° C | 43% | 1019.3 hPa | 0 mm | - | - | - |
| 1777909820 | 23.89° C | 41% | 1020 hPa | 0 mm | - | - | - |
| 1777909220 | 23.33° C | 44% | 1020.1 hPa | 0 mm | - | - | - |
| 1777906220 | 21.67° C | 47% | 1020.3 hPa | 0 mm | - | - | - |
| 1777899019 | 13.33° C | 83% | 1020 hPa | 0 mm | - | - | - |
| 1777897819 | 11.11° C | 88% | 1020 hPa | 0 mm | - | - | - |
| 1777894819 | 8.89° C | 89% | 1020 hPa | 0 mm | - | - | - |
| 1777893019 | 8.89° C | 88% | 1019.9 hPa | 0 mm | - | - | - |
| 1777892439 | 8.89° C | 89% | 1019.8 hPa | 0 mm | - | - | - |
| 1777888839 | 8.89° C | 89% | 1020 hPa | 0 mm | - | - | - |
| 1777885819 | 9.44° C | 87% | 1020 hPa | 0 mm | - | - | - |
| 1777885219 | 10° C | 87% | 1020.1 hPa | 0 mm | - | - | - |
| 1777884619 | 10° C | 86% | 1020.1 hPa | 0 mm | - | - | - |
| 1777882819 | 10° C | 85% | 1020.1 hPa | 0 mm | - | - | - |
| 1777881019 | 10° C | 85% | 1020.2 hPa | 0 mm | - | - | - |
| 1777878619 | 10.56° C | 84% | 1020.5 hPa | 0 mm | - | - | - |
| 1777873818 | 12.78° C | 73% | 1021 hPa | 0 mm | - | - | - |
| 1777872018 | 12.22° C | 78% | 1021 hPa | 0 mm | - | - | - |
| 1777869619 | 12.22° C | 77% | 1021 hPa | 0 mm | - | - | - |
| 1777861820 | 14.44° C | 68% | 1020.5 hPa | 0 mm | - | - | - |
* Rain latest hour (hover to see other rain measurements)
** Current wind speed in m/s (hover to see current wind gust speed)